createdAt,value
2019-03-28T00:01:14.060Z,0.90
2019-03-28T00:03:44.098Z,0.80
2019-03-28T00:06:14.184Z,0.80
2019-03-28T00:08:44.335Z,0.70
2019-03-28T00:11:14.392Z,0.80
2019-03-28T00:13:44.498Z,0.80
2019-03-28T00:16:14.602Z,0.70
2019-03-28T00:18:45.021Z,0.70
2019-03-28T00:21:15.048Z,0.60
2019-03-28T00:24:05.330Z,0.60
2019-03-28T00:26:35.484Z,0.60
2019-03-28T00:29:05.567Z,0.80
2019-03-28T00:31:35.811Z,0.80
2019-03-28T00:34:06.073Z,0.80
2019-03-28T00:36:36.070Z,0.70
2019-03-28T00:39:07.825Z,0.70
2019-03-28T00:41:37.817Z,0.60
2019-03-28T00:44:07.945Z,0.60
2019-03-28T00:46:38.142Z,0.50
2019-03-28T00:49:08.277Z,0.50
2019-03-28T00:51:38.327Z,0.40
2019-03-28T00:54:08.396Z,0.30
2019-03-28T00:56:46.986Z,0.20
2019-03-28T00:59:10.509Z,0.10
2019-03-28T01:01:57.953Z,0.10
2019-03-28T01:04:28.033Z,0.00
2019-03-28T01:06:58.368Z,0.10
2019-03-28T01:09:28.499Z,0.00
2019-03-28T01:11:58.837Z,0.00
2019-03-28T01:14:28.980Z,-0.10
2019-03-28T01:16:59.122Z,-0.10
2019-03-28T01:19:29.239Z,-0.10
2019-03-28T01:21:59.502Z,-0.10
2019-03-28T01:24:29.534Z,-0.20
2019-03-28T01:27:00.141Z,-0.20
2019-03-28T01:29:30.464Z,-0.20
2019-03-28T01:32:00.672Z,-0.30
2019-03-28T01:34:30.872Z,-0.30
2019-03-28T01:37:00.957Z,-0.30
2019-03-28T01:39:30.980Z,-0.40
2019-03-28T01:42:01.235Z,-0.30
2019-03-28T01:44:31.285Z,-0.20
2019-03-28T01:47:01.379Z,-0.30
2019-03-28T01:49:31.416Z,-0.30
2019-03-28T01:52:04.187Z,-0.30
2019-03-28T01:54:33.647Z,-0.40
2019-03-28T01:57:10.845Z,-0.50
2019-03-28T01:59:35.413Z,-0.60
2019-03-28T02:02:06.204Z,-0.60
2019-03-28T02:04:36.238Z,-0.50
2019-03-28T02:07:06.322Z,-0.50
2019-03-28T02:09:36.447Z,-0.40
2019-03-28T02:12:06.540Z,-0.40
2019-03-28T02:14:36.649Z,-0.40
2019-03-28T02:17:06.736Z,-0.40
2019-03-28T02:19:36.907Z,-0.40
2019-03-28T02:22:07.078Z,-0.40
2019-03-28T02:24:37.143Z,-0.40
2019-03-28T02:27:07.208Z,-0.40
2019-03-28T02:29:37.313Z,-0.50
2019-03-28T02:32:07.464Z,-0.50
2019-03-28T02:34:37.555Z,-0.50
2019-03-28T02:37:07.681Z,-0.50
2019-03-28T02:39:37.724Z,-0.50
2019-03-28T02:42:08.154Z,-0.50
2019-03-28T02:44:38.222Z,-0.60
2019-03-28T02:47:08.297Z,-0.70
2019-03-28T02:49:38.352Z,-0.70
2019-03-28T02:52:08.461Z,-0.70
2019-03-28T02:54:38.611Z,-0.80
2019-03-28T02:57:08.806Z,-0.80
2019-03-28T02:59:39.269Z,-0.80
2019-03-28T03:02:09.714Z,-0.80
2019-03-28T03:04:39.892Z,-0.80
2019-03-28T03:07:11.034Z,-0.80
2019-03-28T03:09:41.141Z,-0.80
2019-03-28T03:12:11.269Z,-0.80
2019-03-28T03:14:41.321Z,-0.80
2019-03-28T03:17:11.399Z,-0.90
2019-03-28T03:19:41.513Z,-0.90
2019-03-28T03:22:11.710Z,-1.00
2019-03-28T03:24:41.815Z,-1.10
2019-03-28T03:27:11.861Z,-1.20
2019-03-28T03:29:41.936Z,-1.20
2019-03-28T03:32:11.975Z,-1.30
2019-03-28T03:34:42.137Z,-1.20
2019-03-28T03:37:12.325Z,-1.20
2019-03-28T03:39:42.397Z,-1.20
2019-03-28T03:42:12.710Z,-1.10
2019-03-28T03:44:43.081Z,-1.20
2019-03-28T03:47:13.103Z,-1.20
2019-03-28T03:49:43.140Z,-1.40
2019-03-28T03:52:13.236Z,-1.40
2019-03-28T03:54:43.514Z,-1.40
2019-03-28T03:57:13.707Z,-1.50
2019-03-28T03:59:43.827Z,-1.60
2019-03-28T04:02:15.260Z,-1.60
2019-03-28T04:04:45.556Z,-1.60
2019-03-28T04:07:15.623Z,-1.60
2019-03-28T04:09:45.757Z,-1.50
2019-03-28T04:12:15.833Z,-1.40
2019-03-28T04:14:45.894Z,-1.40
2019-03-28T04:17:16.057Z,-1.40
2019-03-28T04:19:46.146Z,-1.40
2019-03-28T04:22:16.211Z,-1.30
2019-03-28T04:24:47.711Z,-1.40
2019-03-28T04:28:12.596Z,-1.40
2019-03-28T04:30:42.824Z,-1.50
2019-03-28T04:33:13.925Z,-1.50
2019-03-28T04:35:44.768Z,-1.60
2019-03-28T04:38:14.881Z,-1.50
2019-03-28T04:40:44.980Z,-1.50
2019-03-28T04:43:15.062Z,-1.50
2019-03-28T04:45:45.150Z,-1.60
2019-03-28T04:48:15.286Z,-1.70
2019-03-28T04:50:45.348Z,-1.70
2019-03-28T04:53:15.436Z,-1.80
2019-03-28T04:55:45.572Z,-1.70
2019-03-28T04:58:15.621Z,-1.70
2019-03-28T05:00:45.678Z,-1.80
2019-03-28T05:03:15.853Z,-1.80
2019-03-28T05:05:45.906Z,-1.80
2019-03-28T05:08:15.986Z,-1.80
2019-03-28T05:10:46.401Z,-1.70
2019-03-28T05:13:16.480Z,-1.80
2019-03-28T05:15:46.556Z,-1.80
2019-03-28T05:18:16.825Z,-1.80
2019-03-28T05:20:47.075Z,-1.70
2019-03-28T05:23:17.155Z,-1.70
2019-03-28T05:25:47.370Z,-1.70
2019-03-28T05:28:17.506Z,-1.70
2019-03-28T05:30:47.745Z,-1.70
2019-03-28T05:33:17.944Z,-1.60
2019-03-28T05:35:48.008Z,-1.50
2019-03-28T05:38:18.184Z,-1.40
2019-03-28T05:40:48.300Z,-1.40
2019-03-28T05:43:18.568Z,-1.40
2019-03-28T05:45:48.658Z,-1.40
2019-03-28T05:48:18.820Z,-1.30
2019-03-28T05:50:49.247Z,-1.20
2019-03-28T05:53:20.516Z,-1.20
2019-03-28T05:55:50.769Z,-1.10
2019-03-28T05:58:20.953Z,-0.90
2019-03-28T06:00:51.420Z,-0.80
2019-03-28T06:03:21.597Z,-0.70
2019-03-28T06:05:52.239Z,-0.60
2019-03-28T06:08:22.377Z,-0.40
2019-03-28T06:10:52.582Z,-0.20
2019-03-28T06:13:22.677Z,0.00
2019-03-28T06:15:52.768Z,0.10
2019-03-28T06:18:22.910Z,0.20
2019-03-28T06:20:52.980Z,0.30
2019-03-28T06:23:23.021Z,0.40
2019-03-28T06:25:53.128Z,0.60
2019-03-28T06:28:23.165Z,0.70
2019-03-28T06:30:55.778Z,0.90
2019-03-28T06:33:28.226Z,1.50
2019-03-28T06:35:58.390Z,2.10
2019-03-28T06:38:28.576Z,2.30
2019-03-28T06:40:58.994Z,2.70
2019-03-28T06:43:29.050Z,3.50
2019-03-28T06:45:59.212Z,4.00
2019-03-28T06:48:29.591Z,4.30
2019-03-28T06:51:00.005Z,4.10
2019-03-28T06:53:29.986Z,3.80
2019-03-28T06:56:00.458Z,4.10
2019-03-28T06:58:30.605Z,4.80
2019-03-28T07:01:00.753Z,5.30
2019-03-28T07:03:30.930Z,5.50
2019-03-28T07:06:01.060Z,5.40
2019-03-28T07:08:31.172Z,5.50
2019-03-28T07:11:01.300Z,5.00
2019-03-28T07:13:32.548Z,4.80
2019-03-28T07:16:02.593Z,5.90
2019-03-28T07:18:32.713Z,7.20
2019-03-28T07:21:02.830Z,7.30
2019-03-28T07:23:33.028Z,7.30
2019-03-28T07:26:03.256Z,8.10
2019-03-28T07:28:33.645Z,9.60
2019-03-28T07:31:04.117Z,11.20
2019-03-28T07:33:34.166Z,11.20
2019-03-28T07:36:04.395Z,11.00
2019-03-28T07:38:34.481Z,12.10
2019-03-28T07:41:04.698Z,12.70
2019-03-28T07:43:34.705Z,12.20
2019-03-28T07:46:04.795Z,12.40
2019-03-28T07:48:34.926Z,12.90
2019-03-28T07:51:05.094Z,12.30
2019-03-28T07:53:35.118Z,11.50
2019-03-28T07:56:05.397Z,10.80
2019-03-28T07:58:35.858Z,10.60
2019-03-28T08:01:06.376Z,11.10
2019-03-28T08:03:36.562Z,12.30
2019-03-28T08:06:06.682Z,13.40
2019-03-28T08:08:38.967Z,14.80
2019-03-28T08:11:08.664Z,15.80
2019-03-28T08:13:39.134Z,17.00
2019-03-28T08:16:09.238Z,17.90
2019-03-28T08:18:39.379Z,17.50
2019-03-28T08:21:09.528Z,16.70
2019-03-28T08:23:39.517Z,17.00
2019-03-28T08:26:09.920Z,17.50
2019-03-28T08:28:40.293Z,18.50
2019-03-28T08:31:10.419Z,19.60
2019-03-28T08:33:42.885Z,20.70
2019-03-28T08:36:14.356Z,22.10
2019-03-28T08:38:45.928Z,22.50
2019-03-28T08:41:16.029Z,22.80
2019-03-28T08:43:46.139Z,23.90
2019-03-28T08:46:16.254Z,23.50
2019-03-28T08:48:46.283Z,24.10
2019-03-28T08:51:16.734Z,23.80
2019-03-28T08:53:47.198Z,22.90
2019-03-28T08:56:17.288Z,23.40
2019-03-28T08:58:48.026Z,23.00
2019-03-28T09:01:18.581Z,23.10
2019-03-28T09:03:49.894Z,23.90
2019-03-28T09:06:20.136Z,24.40
2019-03-28T09:08:50.142Z,23.20
2019-03-28T09:11:21.533Z,23.10
2019-03-28T09:13:51.801Z,23.00
2019-03-28T09:16:21.908Z,24.10
2019-03-28T09:18:51.947Z,24.50
2019-03-28T09:21:22.153Z,24.30
2019-03-28T09:23:52.223Z,24.50
2019-03-28T09:26:22.242Z,24.30
2019-03-28T09:28:52.259Z,25.00
2019-03-28T09:31:23.304Z,24.30
2019-03-28T09:33:53.357Z,24.10
2019-03-28T09:36:23.691Z,24.80
2019-03-28T09:38:53.772Z,25.40
2019-03-28T09:41:23.808Z,25.20
2019-03-28T09:43:55.538Z,24.10
2019-03-28T09:46:25.939Z,23.40
2019-03-28T09:48:55.934Z,23.90
2019-03-28T09:51:26.323Z,23.50
2019-03-28T09:53:56.456Z,22.90
2019-03-28T09:56:26.555Z,21.70
2019-03-28T09:58:56.613Z,21.80
2019-03-28T10:01:26.695Z,22.50
2019-03-28T10:03:56.813Z,23.20
2019-03-28T10:06:26.909Z,22.70
2019-03-28T10:08:57.123Z,22.20
2019-03-28T10:11:27.495Z,22.30
2019-03-28T10:13:57.567Z,22.80
2019-03-28T10:16:27.841Z,22.70
2019-03-28T10:18:57.948Z,22.70
2019-03-28T10:21:28.020Z,22.20
2019-03-28T10:23:58.345Z,21.70
2019-03-28T10:26:28.410Z,20.80
2019-03-28T10:28:58.534Z,21.00
2019-03-28T10:31:28.878Z,21.40
2019-03-28T10:33:59.147Z,21.80
2019-03-28T10:36:29.257Z,21.60
2019-03-28T10:38:59.499Z,22.60
2019-03-28T10:41:29.580Z,22.40
2019-03-28T10:43:59.640Z,21.30
2019-03-28T10:46:29.653Z,19.50
2019-03-28T10:48:59.688Z,18.90
2019-03-28T10:51:29.741Z,18.00
2019-03-28T10:53:59.813Z,18.50
2019-03-28T10:56:29.949Z,18.60
2019-03-28T10:59:00.077Z,18.80
2019-03-28T11:01:47.026Z,19.30
2019-03-28T11:04:02.013Z,19.80
2019-03-28T11:06:32.513Z,20.90
2019-03-28T11:09:02.942Z,21.10
2019-03-28T11:11:32.969Z,20.70
2019-03-28T11:14:03.236Z,20.60
2019-03-28T11:16:33.475Z,20.60
2019-03-28T11:19:03.649Z,21.50
2019-03-28T11:21:34.407Z,21.10
2019-03-28T11:24:04.801Z,20.60
2019-03-28T11:26:34.918Z,20.70
2019-03-28T11:29:05.015Z,20.90
2019-03-28T11:31:45.611Z,20.70
2019-03-28T11:34:07.237Z,21.30
2019-03-28T11:36:37.529Z,21.90
2019-03-28T11:39:09.794Z,21.20
2019-03-28T11:41:39.829Z,20.40
2019-03-28T11:44:09.948Z,20.50
2019-03-28T11:46:40.042Z,19.30
2019-03-28T11:49:10.233Z,18.50
2019-03-28T11:51:40.267Z,18.10
2019-03-28T11:54:10.351Z,18.30
2019-03-28T11:56:40.349Z,17.90
2019-03-28T11:59:10.699Z,17.60
2019-03-28T12:01:40.692Z,17.00
2019-03-28T12:04:10.759Z,17.20
2019-03-28T12:06:40.842Z,16.80
2019-03-28T12:09:10.944Z,17.40
2019-03-28T12:11:41.031Z,17.90
2019-03-28T12:14:11.501Z,18.10
2019-03-28T12:16:41.760Z,17.00
2019-03-28T12:19:11.871Z,16.40
2019-03-28T12:21:41.940Z,16.30
2019-03-28T12:24:11.974Z,16.00
2019-03-28T12:26:42.346Z,15.80
2019-03-28T12:29:12.497Z,15.40
2019-03-28T12:31:42.689Z,15.40
2019-03-28T12:34:13.146Z,15.50
2019-03-28T12:36:44.621Z,15.30
2019-03-28T12:39:15.745Z,15.60
2019-03-28T12:41:46.022Z,15.50
2019-03-28T12:44:16.125Z,15.30
2019-03-28T12:46:46.186Z,15.10
2019-03-28T12:49:16.247Z,15.30
2019-03-28T12:51:46.385Z,16.80
2019-03-28T12:54:16.533Z,18.20
2019-03-28T12:56:46.707Z,18.20
2019-03-28T12:59:16.790Z,17.80
2019-03-28T13:01:46.908Z,16.90
2019-03-28T13:04:17.020Z,16.40
2019-03-28T13:06:47.117Z,16.30
2019-03-28T13:09:17.144Z,15.90
2019-03-28T13:11:47.157Z,15.90
2019-03-28T13:14:17.234Z,15.80
2019-03-28T13:16:47.355Z,15.90
2019-03-28T13:19:17.562Z,16.00
2019-03-28T13:21:47.639Z,16.20
2019-03-28T13:24:17.637Z,16.40
2019-03-28T13:26:48.237Z,16.10
2019-03-28T13:29:18.376Z,16.10
2019-03-28T13:31:48.498Z,15.80
2019-03-28T13:34:18.633Z,15.80
2019-03-28T13:36:48.712Z,16.10
2019-03-28T13:39:18.897Z,16.10
2019-03-28T13:41:49.020Z,16.00
2019-03-28T13:44:19.253Z,16.50
2019-03-28T13:46:49.372Z,17.10
2019-03-28T13:49:19.576Z,17.30
2019-03-28T13:51:49.616Z,18.00
2019-03-28T13:54:23.019Z,18.90
2019-03-28T13:56:51.714Z,18.80
2019-03-28T13:59:21.824Z,19.00
2019-03-28T14:01:51.897Z,19.60
2019-03-28T14:04:22.122Z,18.90
2019-03-28T14:06:52.218Z,18.80
2019-03-28T14:09:23.457Z,18.20
2019-03-28T14:11:53.739Z,17.50
2019-03-28T14:14:23.907Z,16.90
2019-03-28T14:16:53.993Z,16.30
2019-03-28T14:19:24.065Z,15.70
2019-03-28T14:21:54.098Z,15.50
2019-03-28T14:24:24.313Z,15.20
2019-03-28T14:26:54.365Z,15.00
2019-03-28T14:29:24.469Z,15.10
2019-03-28T14:31:54.571Z,15.20
2019-03-28T14:34:24.711Z,15.20
2019-03-28T14:36:54.746Z,15.40
2019-03-28T14:39:24.909Z,15.20
2019-03-28T14:41:54.964Z,14.80
2019-03-28T14:44:24.994Z,14.90
2019-03-28T14:46:55.012Z,15.00
2019-03-28T14:49:25.567Z,15.10
2019-03-28T14:51:55.624Z,14.90
2019-03-28T14:54:25.697Z,14.80
2019-03-28T14:56:57.146Z,14.70
2019-03-28T14:59:45.769Z,14.50
2019-03-28T15:02:33.726Z,14.60
2019-03-28T15:05:04.005Z,14.80
2019-03-28T15:07:34.017Z,14.80
2019-03-28T15:10:05.301Z,14.90
2019-03-28T15:12:35.473Z,14.90
2019-03-28T15:15:05.832Z,14.70
2019-03-28T15:17:35.949Z,14.70
2019-03-28T15:20:06.404Z,14.70
2019-03-28T15:22:36.543Z,14.50
2019-03-28T15:25:07.701Z,14.40
2019-03-28T15:27:37.862Z,14.50
2019-03-28T15:30:08.378Z,14.80
2019-03-28T15:32:38.985Z,14.90
2019-03-28T15:35:09.075Z,14.80
2019-03-28T15:37:39.242Z,14.50
2019-03-28T15:40:10.872Z,14.10
2019-03-28T15:42:40.984Z,14.00
2019-03-28T15:45:11.482Z,14.20
2019-03-28T15:47:42.122Z,14.30
2019-03-28T15:50:12.398Z,14.40
2019-03-28T15:52:42.545Z,14.60
2019-03-28T15:55:14.717Z,14.80
2019-03-28T15:57:44.831Z,15.10
2019-03-28T16:00:15.313Z,15.00
2019-03-28T16:02:45.507Z,15.20
2019-03-28T16:05:15.578Z,15.40
2019-03-28T16:07:45.649Z,15.60
2019-03-28T16:10:16.304Z,15.70
2019-03-28T16:12:46.394Z,15.70
2019-03-28T16:15:16.628Z,15.70
2019-03-28T16:17:47.536Z,15.50
2019-03-28T16:20:17.901Z,14.90
2019-03-28T16:22:48.234Z,14.40
2019-03-28T16:25:18.313Z,13.90
2019-03-28T16:27:48.477Z,13.50
2019-03-28T16:30:23.073Z,13.40
2019-03-28T16:33:11.243Z,13.30
2019-03-28T16:35:41.447Z,13.20
2019-03-28T16:38:11.672Z,13.20
2019-03-28T16:41:21.443Z,13.20
2019-03-28T16:43:47.714Z,13.10
2019-03-28T16:46:17.828Z,13.10
2019-03-28T16:48:48.088Z,13.00
2019-03-28T16:51:18.193Z,12.90
2019-03-28T16:53:48.450Z,12.80
2019-03-28T16:56:19.098Z,12.80
2019-03-28T16:58:49.199Z,12.70
2019-03-28T17:01:36.818Z,12.70
2019-03-28T17:04:19.687Z,12.60
2019-03-28T17:06:39.381Z,12.60
2019-03-28T17:09:09.687Z,12.50
2019-03-28T17:11:39.953Z,12.40
2019-03-28T17:14:10.080Z,12.40
2019-03-28T17:16:40.166Z,12.30
2019-03-28T17:19:10.706Z,12.30
2019-03-28T17:21:40.853Z,12.20
2019-03-28T17:24:11.329Z,12.20
2019-03-28T17:26:41.549Z,12.10
2019-03-28T17:29:12.008Z,12.10
2019-03-28T17:31:42.195Z,12.00
2019-03-28T17:34:12.359Z,11.90
2019-03-28T17:36:42.686Z,11.90
2019-03-28T17:39:12.953Z,11.80
2019-03-28T17:41:43.249Z,11.70
2019-03-28T17:44:14.706Z,11.70
2019-03-28T17:46:45.148Z,11.70
2019-03-28T17:49:15.384Z,11.60
2019-03-28T17:51:45.550Z,11.60
2019-03-28T17:54:15.729Z,11.50
2019-03-28T17:56:45.882Z,11.50
2019-03-28T17:59:16.026Z,11.40
2019-03-28T18:01:46.220Z,11.40
2019-03-28T18:04:22.808Z,11.40
2019-03-28T18:06:48.303Z,11.30
2019-03-28T18:09:18.566Z,11.30
2019-03-28T18:11:48.752Z,11.20
2019-03-28T18:14:18.874Z,11.20
2019-03-28T18:16:48.992Z,11.00
2019-03-28T18:19:19.135Z,10.80
2019-03-28T18:22:02.472Z,10.70
2019-03-28T18:24:21.158Z,10.50
2019-03-28T18:26:51.866Z,10.30
2019-03-28T18:29:22.461Z,10.20
2019-03-28T18:31:52.905Z,10.10
2019-03-28T18:34:23.181Z,10.00
2019-03-28T18:36:53.281Z,10.00
2019-03-28T18:39:23.455Z,9.90
2019-03-28T18:41:56.435Z,9.80
2019-03-28T18:44:25.374Z,9.70
2019-03-28T18:46:55.694Z,9.60
2019-03-28T18:49:25.917Z,9.50
2019-03-28T18:51:56.056Z,9.40
2019-03-28T18:54:26.129Z,9.30
2019-03-28T18:56:56.343Z,9.30
2019-03-28T18:59:26.482Z,9.20
2019-03-28T19:01:56.580Z,9.10
2019-03-28T19:04:26.870Z,9.00
2019-03-28T19:06:57.878Z,9.00
2019-03-28T19:09:28.416Z,9.00
2019-03-28T19:11:58.581Z,9.00
2019-03-28T19:14:28.762Z,9.00
2019-03-28T19:16:59.198Z,9.10
2019-03-28T19:19:39.108Z,9.20
2019-03-28T19:22:01.277Z,9.30
2019-03-28T19:24:31.399Z,9.30
2019-03-28T19:27:01.559Z,9.40
2019-03-28T19:29:31.889Z,9.50
2019-03-28T19:32:01.952Z,9.50
2019-03-28T19:34:32.670Z,9.60
2019-03-28T19:37:02.985Z,9.60
2019-03-28T19:39:34.136Z,9.60
2019-03-28T19:42:04.890Z,9.60
2019-03-28T19:44:35.164Z,9.60
2019-03-28T19:47:05.382Z,9.60
2019-03-28T19:49:35.494Z,9.60
2019-03-28T19:52:05.763Z,9.60
2019-03-28T19:54:36.178Z,9.60
2019-03-28T19:57:06.518Z,9.60
2019-03-28T19:59:36.727Z,9.60
2019-03-28T20:02:07.937Z,9.60
2019-03-28T20:04:38.210Z,9.60
2019-03-28T20:07:20.902Z,9.60
2019-03-28T20:09:40.327Z,9.60
2019-03-28T20:12:10.483Z,9.60
2019-03-28T20:14:41.227Z,9.60
2019-03-28T20:17:11.938Z,9.60
2019-03-28T20:19:42.157Z,9.60
2019-03-28T20:22:12.261Z,9.70
2019-03-28T20:24:42.419Z,9.70
2019-03-28T20:27:12.590Z,9.70
2019-03-28T20:29:42.713Z,9.70
2019-03-28T20:32:12.804Z,9.70
2019-03-28T20:34:42.894Z,9.60
2019-03-28T20:37:13.378Z,9.60
2019-03-28T20:39:43.505Z,9.60
2019-03-28T20:42:14.026Z,9.60
2019-03-28T20:44:44.689Z,9.70
2019-03-28T20:47:15.047Z,9.60
2019-03-28T20:49:48.007Z,9.70
2019-03-28T20:52:19.091Z,9.60
2019-03-28T20:54:49.386Z,9.60
2019-03-28T20:57:19.575Z,9.60
2019-03-28T20:59:49.685Z,9.60
2019-03-28T21:02:19.764Z,9.50
2019-03-28T21:04:49.986Z,9.50
2019-03-28T21:07:21.869Z,9.50
2019-03-28T21:09:52.012Z,9.40
2019-03-28T21:12:22.262Z,9.40
2019-03-28T21:14:53.214Z,9.40
2019-03-28T21:17:23.575Z,9.40
2019-03-28T21:19:53.679Z,9.40
2019-03-28T21:22:23.926Z,9.40
2019-03-28T21:24:54.070Z,9.40
2019-03-28T21:27:24.275Z,9.40
2019-03-28T21:29:54.396Z,9.40
2019-03-28T21:32:24.521Z,9.40
2019-03-28T21:34:56.628Z,9.40
2019-03-28T21:37:26.898Z,9.40
2019-03-28T21:39:56.945Z,9.40
2019-03-28T21:42:27.086Z,9.40
2019-03-28T21:44:58.513Z,9.30
2019-03-28T21:47:28.857Z,9.30
2019-03-28T21:49:59.045Z,9.30
2019-03-28T21:52:29.158Z,9.20
2019-03-28T21:54:59.316Z,9.20
2019-03-28T21:57:29.413Z,9.30
2019-03-28T21:59:59.824Z,9.20
2019-03-28T22:02:29.833Z,9.20
2019-03-28T22:05:00.983Z,9.20
2019-03-28T22:07:31.715Z,9.00
2019-03-28T22:10:01.879Z,8.80
2019-03-28T22:12:31.932Z,8.60
2019-03-28T22:15:02.513Z,8.40
2019-03-28T22:17:32.679Z,8.30
2019-03-28T22:20:02.797Z,8.10
2019-03-28T22:22:33.324Z,8.10
2019-03-28T22:25:03.438Z,8.10
2019-03-28T22:27:33.647Z,8.00
2019-03-28T22:30:03.799Z,7.90
2019-03-28T22:32:33.925Z,7.90
2019-03-28T22:35:04.151Z,7.80
2019-03-28T22:37:34.316Z,7.80
2019-03-28T22:40:05.018Z,7.80
2019-03-28T22:42:35.837Z,7.90
2019-03-28T22:45:07.918Z,7.90
2019-03-28T22:47:38.088Z,7.90
2019-03-28T22:50:09.819Z,7.80
2019-03-28T22:52:39.967Z,7.70
2019-03-28T22:55:10.412Z,7.50
2019-03-28T22:57:41.186Z,7.40
2019-03-28T23:00:13.822Z,7.40
2019-03-28T23:02:44.025Z,7.40
2019-03-28T23:05:14.693Z,7.30
2019-03-28T23:07:44.784Z,7.30
2019-03-28T23:10:14.907Z,7.40
2019-03-28T23:12:45.051Z,7.30
2019-03-28T23:15:15.735Z,7.40
2019-03-28T23:17:46.316Z,7.30
2019-03-28T23:20:17.221Z,7.30
2019-03-28T23:22:47.417Z,7.30
2019-03-28T23:25:17.645Z,7.20
2019-03-28T23:27:47.854Z,7.20
2019-03-28T23:30:17.934Z,7.10
2019-03-28T23:32:48.252Z,7.00
2019-03-28T23:35:18.308Z,7.10
2019-03-28T23:37:48.461Z,7.00
2019-03-28T23:40:18.823Z,7.00
2019-03-28T23:42:48.984Z,6.90
2019-03-28T23:45:19.156Z,6.90
2019-03-28T23:47:49.900Z,7.00
2019-03-28T23:50:20.049Z,7.30
2019-03-28T23:52:50.176Z,7.30
2019-03-28T23:55:20.501Z,7.30
2019-03-28T23:57:50.586Z,7.40
